createdAt,value
2022-08-02T00:02:28.722Z,101519.97
2022-08-02T00:07:31.731Z,101522.34
2022-08-02T00:12:34.881Z,101515.66
2022-08-02T00:17:39.117Z,101520.75
2022-08-02T00:22:41.983Z,101515.31
2022-08-02T00:27:44.827Z,101509.91
2022-08-02T00:32:49.196Z,101497.94
2022-08-02T00:37:52.233Z,101495.91
2022-08-02T00:43:06.765Z,101502.13
2022-08-02T00:48:12.312Z,101510.41
2022-08-02T00:53:15.127Z,101509.06
2022-08-02T00:58:18.095Z,101526.47
2022-08-02T01:03:22.239Z,101528.97
2022-08-02T01:08:29.576Z,101535.41
2022-08-02T01:13:34.768Z,101530.22
2022-08-02T01:18:45.195Z,101532.00
2022-08-02T01:24:01.075Z,101530.91
2022-08-02T01:29:09.771Z,101533.50
2022-08-02T01:34:17.851Z,101531.78
2022-08-02T01:39:27.331Z,101523.69
2022-08-02T01:44:41.048Z,101535.44
2022-08-02T01:49:47.541Z,101534.84
2022-08-02T01:54:53.622Z,101535.31
2022-08-02T02:00:01.694Z,101529.56
2022-08-02T02:05:07.454Z,101541.84
2022-08-02T02:10:15.012Z,101546.59
2022-08-02T02:15:19.789Z,101543.44
2022-08-02T02:20:24.519Z,101534.16
2022-08-02T02:25:36.143Z,101538.44
2022-08-02T02:30:50.656Z,101521.16
2022-08-02T02:35:54.334Z,101515.66
2022-08-02T02:40:59.578Z,101520.84
2022-08-02T02:46:06.229Z,101516.53
2022-08-02T02:51:14.101Z,101511.75
2022-08-02T02:56:17.722Z,101508.25
2022-08-02T03:01:55.523Z,101493.97
2022-08-02T03:06:51.390Z,101500.66
2022-08-02T03:11:56.107Z,101500.97
2022-08-02T03:17:00.218Z,101516.75
2022-08-02T03:22:03.040Z,101501.91
2022-08-02T03:27:05.884Z,101495.81
2022-08-02T03:32:10.793Z,101495.03
2022-08-02T03:37:13.970Z,101494.81
2022-08-02T03:42:17.341Z,101491.31
2022-08-02T03:47:22.880Z,101489.50
2022-08-02T03:52:27.590Z,101486.31
2022-08-02T03:57:31.148Z,101488.13
2022-08-02T04:02:36.240Z,101487.69
2022-08-02T04:08:32.823Z,101493.69
2022-08-02T04:13:01.914Z,101498.41
2022-08-02T04:18:06.466Z,101507.00
2022-08-02T04:23:12.918Z,101501.13
2022-08-02T04:28:18.351Z,101513.31
2022-08-02T04:33:23.481Z,101518.72
2022-08-02T04:38:26.840Z,101524.34
2022-08-02T04:43:29.644Z,101514.75
2022-08-02T04:48:34.040Z,101512.16
2022-08-02T04:53:36.847Z,101522.78
2022-08-02T04:58:40.844Z,101511.97
2022-08-02T05:03:46.795Z,101506.44
2022-08-02T05:08:52.952Z,101515.19
2022-08-02T05:13:58.052Z,101510.97
2022-08-02T05:19:03.972Z,101519.16
2022-08-02T05:24:07.895Z,101511.84
2022-08-02T05:29:10.794Z,101504.44
2022-08-02T05:34:14.934Z,101509.38
2022-08-02T05:39:19.086Z,101508.81
2022-08-02T05:44:22.598Z,101514.53
2022-08-02T05:49:26.966Z,101509.13
2022-08-02T05:54:42.409Z,101509.75
2022-08-02T05:59:54.710Z,101506.22
2022-08-02T06:05:05.210Z,101505.41
2022-08-02T06:10:09.972Z,101509.31
2022-08-02T06:15:15.188Z,101511.81
2022-08-02T06:20:21.246Z,101506.06
2022-08-02T06:25:50.371Z,101510.66
2022-08-02T06:30:48.770Z,101513.72
2022-08-02T06:36:03.177Z,101510.13
2022-08-02T06:41:08.165Z,101501.59
2022-08-02T06:46:57.058Z,101514.13
2022-08-02T06:51:36.370Z,101494.72
2022-08-02T06:56:39.254Z,101479.72
2022-08-02T07:01:42.470Z,101477.22
2022-08-02T07:06:46.749Z,101471.00
2022-08-02T07:11:49.677Z,101461.31
2022-08-02T07:16:53.491Z,101462.91
2022-08-02T07:22:00.588Z,101463.19
2022-08-02T07:27:13.538Z,101462.59
2022-08-02T07:32:17.773Z,101457.13
2022-08-02T07:37:53.472Z,101452.91
2022-08-02T07:42:47.058Z,101460.50
2022-08-02T07:47:50.800Z,101454.47
2022-08-02T07:52:58.074Z,101455.56
2022-08-02T07:58:01.145Z,101455.34
2022-08-02T08:03:03.964Z,101453.81
2022-08-02T08:08:11.138Z,101437.63
2022-08-02T08:13:17.167Z,101426.72
2022-08-02T08:18:20.010Z,101418.34
2022-08-02T08:23:24.555Z,101416.91
2022-08-02T08:28:31.330Z,101415.19
2022-08-02T08:34:22.734Z,101415.59
2022-08-02T08:39:27.036Z,101405.78
2022-08-02T08:44:30.590Z,101393.16
2022-08-02T08:49:38.284Z,101390.22
2022-08-02T08:54:59.262Z,101382.25
2022-08-02T09:00:02.678Z,101395.22
2022-08-02T09:05:06.501Z,101390.78
2022-08-02T09:10:38.627Z,101393.44
2022-08-02T09:15:42.886Z,101375.50
2022-08-02T09:20:57.480Z,101377.69
2022-08-02T09:26:07.403Z,101372.25
2022-08-02T09:31:13.165Z,101367.28
2022-08-02T09:36:17.506Z,101356.16
2022-08-02T09:41:25.158Z,101360.66
2022-08-02T09:46:30.541Z,101373.81
2022-08-02T09:51:35.821Z,101364.34
2022-08-02T09:56:45.122Z,101354.88
2022-08-02T10:01:59.062Z,101356.81
2022-08-02T10:07:06.189Z,101370.19
2022-08-02T10:12:12.617Z,101366.44
2022-08-02T10:17:16.683Z,101364.78
2022-08-02T10:22:20.206Z,101363.03
2022-08-02T10:27:25.929Z,101367.16
2022-08-02T10:32:34.560Z,101371.22
2022-08-02T10:37:40.298Z,101361.94
2022-08-02T10:42:49.621Z,101349.56
2022-08-02T10:48:04.537Z,101345.03
2022-08-02T10:53:27.877Z,101335.03
2022-08-02T10:58:34.130Z,101331.53
2022-08-02T11:03:40.771Z,101320.59
2022-08-02T11:08:43.887Z,101310.31
2022-08-02T11:14:07.107Z,101313.78
2022-08-02T11:19:09.915Z,101307.09
2022-08-02T11:24:28.161Z,101304.25
2022-08-02T11:29:40.439Z,101298.38
2022-08-02T11:34:44.026Z,101299.56
2022-08-02T11:39:51.745Z,101293.47
2022-08-02T11:44:57.387Z,101285.94
2022-08-02T11:50:07.794Z,101301.84
2022-08-02T11:55:12.586Z,101297.06
2022-08-02T12:00:19.316Z,101290.56
2022-08-02T12:06:02.910Z,101276.00
2022-08-02T12:10:49.604Z,101264.34
2022-08-02T12:15:54.000Z,101253.72
2022-08-02T12:20:56.839Z,101250.19
2022-08-02T12:26:05.577Z,101259.38
2022-08-02T12:31:14.029Z,101261.13
2022-08-02T12:36:17.765Z,101251.78
2022-08-02T12:41:31.500Z,101239.84
2022-08-02T12:46:42.166Z,101235.09
2022-08-02T12:51:55.857Z,101225.75
2022-08-02T12:57:12.611Z,101214.63
2022-08-02T13:02:18.001Z,101218.69
2022-08-02T13:07:21.171Z,101227.31
2022-08-02T13:12:24.377Z,101224.28
2022-08-02T13:17:28.753Z,101225.97
2022-08-02T13:22:31.763Z,101224.03
2022-08-02T13:27:36.319Z,101224.06
2022-08-02T13:32:40.631Z,101224.06
2022-08-02T13:37:44.598Z,101199.72
2022-08-02T13:42:47.430Z,101209.66
2022-08-02T13:48:04.665Z,101206.88
2022-08-02T13:53:08.595Z,101202.56
2022-08-02T13:58:12.020Z,101189.97
2022-08-02T14:03:16.930Z,101188.34
2022-08-02T14:08:22.770Z,101188.09
2022-08-02T14:13:25.768Z,101172.50
2022-08-02T14:18:29.943Z,101172.34
2022-08-02T14:23:50.574Z,101180.00
2022-08-02T14:28:53.954Z,101164.19
2022-08-02T14:33:58.219Z,101165.03
2022-08-02T14:39:01.906Z,101165.09
2022-08-02T14:44:05.666Z,101164.22
2022-08-02T14:49:11.241Z,101157.56
2022-08-02T14:54:18.215Z,101147.56
2022-08-02T14:59:21.307Z,101147.41
2022-08-02T15:04:25.792Z,101149.34
2022-08-02T15:09:28.900Z,101145.03
2022-08-02T15:14:31.780Z,101136.28
2022-08-02T15:19:57.506Z,101133.59
2022-08-02T15:24:59.161Z,101125.53
2022-08-02T15:30:01.951Z,101124.31
2022-08-02T15:35:07.065Z,101110.19
2022-08-02T15:40:11.209Z,101111.00
2022-08-02T15:45:15.428Z,101110.81
2022-08-02T15:50:20.950Z,101116.28
2022-08-02T15:55:23.773Z,101105.63
2022-08-02T16:00:27.391Z,101108.34
2022-08-02T16:05:31.574Z,101103.13
2022-08-02T16:10:35.137Z,101099.69
2022-08-02T16:15:37.983Z,101088.88
2022-08-02T16:20:42.304Z,101093.16
2022-08-02T16:25:45.106Z,101094.00
2022-08-02T16:31:04.814Z,101088.75
2022-08-02T16:36:14.198Z,101082.63
2022-08-02T16:41:17.093Z,101082.50
2022-08-02T16:46:19.917Z,101085.03
2022-08-02T16:51:26.814Z,101088.50
2022-08-02T16:56:34.114Z,101079.44
2022-08-02T17:02:03.355Z,101079.28
2022-08-02T17:07:01.365Z,101075.69
2022-08-02T17:12:04.467Z,101077.31
2022-08-02T17:17:07.824Z,101063.25
2022-08-02T17:22:19.702Z,101068.66
2022-08-02T17:27:22.562Z,101068.97
2022-08-02T17:32:25.375Z,101056.72
2022-08-02T17:37:34.560Z,101062.69
2022-08-02T17:42:44.451Z,101063.50
2022-08-02T17:48:05.048Z,101061.69
2022-08-02T17:53:12.957Z,101062.47
2022-08-02T17:58:15.733Z,101054.44
2022-08-02T18:03:18.657Z,101058.00
2022-08-02T18:08:27.806Z,101063.19
2022-08-02T18:13:35.779Z,101063.03
2022-08-02T18:18:47.509Z,101064.56
2022-08-02T18:23:58.784Z,101072.38
2022-08-02T18:29:10.770Z,101064.22
2022-08-02T18:34:15.120Z,101064.13
2022-08-02T18:39:19.312Z,101075.41
2022-08-02T18:44:22.195Z,101069.34
2022-08-02T18:49:25.517Z,101069.16
2022-08-02T18:54:42.305Z,101075.34
2022-08-02T18:59:51.339Z,101062.88
2022-08-02T19:04:54.478Z,101068.94
2022-08-02T19:09:59.047Z,101065.25
2022-08-02T19:15:02.257Z,101072.22
2022-08-02T19:20:06.444Z,101071.06
2022-08-02T19:25:15.936Z,101071.84
2022-08-02T19:30:21.350Z,101071.78
2022-08-02T19:35:34.439Z,101077.91
2022-08-02T19:40:41.694Z,101076.81
2022-08-02T19:51:09.427Z,101081.25
2022-08-02T19:56:20.126Z,101082.91
2022-08-02T20:01:36.829Z,101091.47
2022-08-02T20:06:45.465Z,101088.63
2022-08-02T20:11:54.245Z,101093.97
2022-08-02T20:16:58.061Z,101090.34
2022-08-02T20:22:00.973Z,101096.31
2022-08-02T20:27:05.587Z,101095.22
2022-08-02T20:32:08.618Z,101094.19
2022-08-02T20:37:59.455Z,101107.41
2022-08-02T20:42:36.010Z,101101.25
2022-08-02T20:47:40.467Z,101100.25
2022-08-02T20:52:43.866Z,101100.19
2022-08-02T20:58:00.309Z,101099.16
2022-08-02T21:03:05.696Z,101092.75
2022-08-02T21:08:14.168Z,101090.75
2022-08-02T21:13:23.237Z,101088.91
2022-08-02T21:18:40.232Z,101079.94
2022-08-02T21:23:48.479Z,101085.03
2022-08-02T21:29:00.713Z,101075.25
2022-08-02T21:34:21.605Z,101071.59
2022-08-02T21:39:26.195Z,101083.78
2022-08-02T21:44:30.473Z,101080.06
2022-08-02T21:50:09.812Z,101083.44
2022-08-02T21:54:56.888Z,101079.88
2022-08-02T22:00:02.593Z,101081.66
2022-08-02T22:05:14.135Z,101080.69
2022-08-02T22:10:17.284Z,101090.22
2022-08-02T22:15:25.751Z,101087.47
2022-08-02T22:20:38.720Z,101098.78
2022-08-02T22:25:44.114Z,101089.94
2022-08-02T22:30:52.678Z,101095.13
2022-08-02T22:35:55.988Z,101100.31
2022-08-02T22:40:58.796Z,101108.09
2022-08-02T22:46:02.986Z,101111.50
2022-08-02T22:51:05.872Z,101113.25
2022-08-02T22:56:09.693Z,101113.25
2022-08-02T22:59:06.518Z,101081.25
2022-08-02T23:01:14.457Z,101103.88
2022-08-02T23:06:19.230Z,101105.38
2022-08-02T23:11:25.696Z,101105.19
2022-08-02T23:16:47.286Z,101097.06
2022-08-02T23:22:02.062Z,101093.38
2022-08-02T23:27:05.957Z,101091.19
2022-08-02T23:32:10.442Z,101086.34
2022-08-02T23:37:13.325Z,101092.25
2022-08-02T23:42:16.433Z,101083.28
2022-08-02T23:47:21.854Z,101087.78
2022-08-02T23:52:25.481Z,101084.94
2022-08-02T23:57:28.325Z,101089.94
